Valley Springs, South Dakota
Current Conditions -  °F | °C
As of 12:55 AM on Thursday 27 Nov 2014 (Local Time) from KLYV Reporting Station
Clear Clear  
Wind Chill: -6°   Ceiling: Unl
Heat Index:   Visibility: 10mi
Dew Point: -6°   Wind: 6mph
Humidity: 61%   Direction: 320°NW
Pressure: 30.48"   Gusts: NA
Location:  43.58°N, 96.47°W
Report Text: KLYV 270655Z AUTO 32005KT 10SM CLR M15/M21 A3048 RMK AO2
Loading
Personal Weather Stations






























Interactive Weather Map New forecast layout! Learn more

10-Day Weather Forecast

Advertisements
Track Severe Weather on mobile